Avon, Indiana
Current Conditions -  °F | °C
As of 1:53 AM on Monday 24 Nov 2014 (Local Time) from KEYE Reporting Station
Overcast Overcast  
Wind Chill: 12°   Ceiling: 800
Heat Index: 12°   Visibility: 10mi
Dew Point: 12°   Wind: 16mph
Humidity: 100%   Direction: 220°SW
Pressure: 29.21"   Gusts: 24mph
Location:  39.76°N, 86.4°W
Report Text: KEYE 240653Z AUTO 22014G21KT 10SM OVC008 12/12 A2921 RMK AO2 PK WND 25027/0559 RAB32E43 SLP890 P0000 T01220122 $
Loading
Personal Weather Stations






























Interactive Weather Map New forecast layout! Learn more

10-Day Weather Forecast

Advertisements
Track Severe Weather on mobile